sensor_id;sensor_type;location;lat;lon;timestamp;P1;durP1;ratioP1;P2;durP2;ratioP2
79792;SDS011;69279;49.072;17.462;2023-06-14T00:02:05;2.72;;;2.08;;
79792;SDS011;69279;49.072;17.462;2023-06-14T00:04:33;4.68;;;1.98;;
79792;SDS011;69279;49.072;17.462;2023-06-14T00:06:59;4.60;;;2.13;;
79792;SDS011;69279;49.072;17.462;2023-06-14T00:09:24;3.28;;;2.40;;
79792;SDS011;69279;49.072;17.462;2023-06-14T00:11:49;3.55;;;2.20;;
79792;SDS011;69279;49.072;17.462;2023-06-14T00:14:15;3.95;;;2.28;;
79792;SDS011;69279;49.072;17.462;2023-06-14T00:16:40;4.18;;;2.38;;
79792;SDS011;69279;49.072;17.462;2023-06-14T00:19:07;2.72;;;1.73;;
79792;SDS011;69279;49.072;17.462;2023-06-14T00:21:35;3.65;;;2.33;;
79792;SDS011;69279;49.072;17.462;2023-06-14T00:24:01;3.20;;;2.63;;
79792;SDS011;69279;49.072;17.462;2023-06-14T00:26:27;3.20;;;2.13;;
79792;SDS011;69279;49.072;17.462;2023-06-14T00:28:53;4.82;;;2.38;;
79792;SDS011;69279;49.072;17.462;2023-06-14T00:31:19;4.50;;;2.17;;
79792;SDS011;69279;49.072;17.462;2023-06-14T00:33:44;4.60;;;2.55;;
79792;SDS011;69279;49.072;17.462;2023-06-14T00:36:10;2.63;;;2.03;;
79792;SDS011;69279;49.072;17.462;2023-06-14T00:38:36;2.50;;;1.90;;
79792;SDS011;69279;49.072;17.462;2023-06-14T00:41:01;4.07;;;1.77;;
79792;SDS011;69279;49.072;17.462;2023-06-14T00:43:26;2.05;;;1.73;;
79792;SDS011;69279;49.072;17.462;2023-06-14T00:45:52;2.67;;;2.10;;
79792;SDS011;69279;49.072;17.462;2023-06-14T00:48:17;3.58;;;1.58;;
79792;SDS011;69279;49.072;17.462;2023-06-14T00:50:43;2.72;;;1.70;;
79792;SDS011;69279;49.072;17.462;2023-06-14T00:53:10;2.55;;;2.30;;
79792;SDS011;69279;49.072;17.462;2023-06-14T00:55:40;5.25;;;2.25;;
79792;SDS011;69279;49.072;17.462;2023-06-14T00:58:05;2.58;;;1.90;;
79792;SDS011;69279;49.072;17.462;2023-06-14T01:00:32;3.35;;;2.38;;
79792;SDS011;69279;49.072;17.462;2023-06-14T01:02:57;3.20;;;2.20;;
79792;SDS011;69279;49.072;17.462;2023-06-14T01:05:23;2.72;;;2.22;;
79792;SDS011;69279;49.072;17.462;2023-06-14T01:13:13;3.28;;;2.33;;
79792;SDS011;69279;49.072;17.462;2023-06-14T01:15:43;3.17;;;2.42;;
79792;SDS011;69279;49.072;17.462;2023-06-14T01:18:09;2.97;;;2.13;;
79792;SDS011;69279;49.072;17.462;2023-06-14T01:20:42;2.60;;;1.92;;
79792;SDS011;69279;49.072;17.462;2023-06-14T01:23:09;3.20;;;2.05;;
79792;SDS011;69279;49.072;17.462;2023-06-14T01:25:37;2.95;;;2.03;;
79792;SDS011;69279;49.072;17.462;2023-06-14T01:28:04;4.72;;;2.78;;
79792;SDS011;69279;49.072;17.462;2023-06-14T01:30:35;4.03;;;2.65;;
79792;SDS011;69279;49.072;17.462;2023-06-14T01:33:02;3.90;;;2.03;;
79792;SDS011;69279;49.072;17.462;2023-06-14T01:35:28;2.92;;;1.77;;
79792;SDS011;69279;49.072;17.462;2023-06-14T01:37:53;2.92;;;2.22;;
79792;SDS011;69279;49.072;17.462;2023-06-14T01:40:19;2.15;;;1.88;;
79792;SDS011;69279;49.072;17.462;2023-06-14T01:42:49;4.43;;;2.00;;
79792;SDS011;69279;49.072;17.462;2023-06-14T01:45:15;1.95;;;1.58;;
79792;SDS011;69279;49.072;17.462;2023-06-14T01:47:41;2.30;;;1.50;;
79792;SDS011;69279;49.072;17.462;2023-06-14T01:50:07;2.40;;;1.73;;
79792;SDS011;69279;49.072;17.462;2023-06-14T01:52:33;2.60;;;1.70;;
79792;SDS011;69279;49.072;17.462;2023-06-14T01:54:58;2.20;;;1.33;;
79792;SDS011;69279;49.072;17.462;2023-06-14T01:57:27;2.28;;;1.70;;
79792;SDS011;69279;49.072;17.462;2023-06-14T01:59:52;3.50;;;1.67;;
79792;SDS011;69279;49.072;17.462;2023-06-14T02:02:17;2.60;;;1.63;;
79792;SDS011;69279;49.072;17.462;2023-06-14T02:04:43;3.08;;;1.67;;
79792;SDS011;69279;49.072;17.462;2023-06-14T02:09:34;1.70;;;1.53;;
79792;SDS011;69279;49.072;17.462;2023-06-14T02:12:00;2.40;;;1.23;;
79792;SDS011;69279;49.072;17.462;2023-06-14T02:14:26;2.58;;;1.75;;
79792;SDS011;69279;49.072;17.462;2023-06-14T02:16:53;2.28;;;1.80;;
79792;SDS011;69279;49.072;17.462;2023-06-14T02:19:18;5.75;;;2.05;;
79792;SDS011;69279;49.072;17.462;2023-06-14T02:21:44;2.17;;;1.73;;
79792;SDS011;69279;49.072;17.462;2023-06-14T02:24:10;2.83;;;1.90;;
79792;SDS011;69279;49.072;17.462;2023-06-14T02:26:35;2.13;;;1.77;;
79792;SDS011;69279;49.072;17.462;2023-06-14T02:29:03;2.40;;;1.50;;
79792;SDS011;69279;49.072;17.462;2023-06-14T02:31:29;3.65;;;1.90;;
79792;SDS011;69279;49.072;17.462;2023-06-14T02:33:54;3.63;;;1.70;;
79792;SDS011;69279;49.072;17.462;2023-06-14T02:36:20;2.00;;;1.80;;
79792;SDS011;69279;49.072;17.462;2023-06-14T02:38:45;2.63;;;1.75;;
79792;SDS011;69279;49.072;17.462;2023-06-14T02:41:11;3.03;;;1.85;;
79792;SDS011;69279;49.072;17.462;2023-06-14T02:43:37;3.13;;;1.77;;
79792;SDS011;69279;49.072;17.462;2023-06-14T02:46:03;2.53;;;1.80;;
79792;SDS011;69279;49.072;17.462;2023-06-14T02:48:28;4.95;;;2.60;;
79792;SDS011;69279;49.072;17.462;2023-06-14T02:50:54;2.97;;;1.85;;
79792;SDS011;69279;49.072;17.462;2023-06-14T02:53:21;4.05;;;1.98;;
79792;SDS011;69279;49.072;17.462;2023-06-14T02:55:46;3.53;;;2.00;;
79792;SDS011;69279;49.072;17.462;2023-06-14T02:58:13;3.00;;;1.85;;
79792;SDS011;69279;49.072;17.462;2023-06-14T03:00:39;2.90;;;1.88;;
79792;SDS011;69279;49.072;17.462;2023-06-14T03:03:06;4.15;;;2.33;;
79792;SDS011;69279;49.072;17.462;2023-06-14T03:05:38;2.90;;;1.25;;
79792;SDS011;69279;49.072;17.462;2023-06-14T03:08:06;3.78;;;1.95;;
79792;SDS011;69279;49.072;17.462;2023-06-14T03:10:32;2.80;;;1.35;;
79792;SDS011;69279;49.072;17.462;2023-06-14T03:15:22;4.97;;;1.50;;
79792;SDS011;69279;49.072;17.462;2023-06-14T03:17:49;2.58;;;1.73;;
79792;SDS011;69279;49.072;17.462;2023-06-14T03:20:15;3.65;;;1.65;;
79792;SDS011;69279;49.072;17.462;2023-06-14T03:25:07;2.67;;;1.30;;
79792;SDS011;69279;49.072;17.462;2023-06-14T03:27:34;3.10;;;2.00;;
79792;SDS011;69279;49.072;17.462;2023-06-14T03:34:51;3.10;;;1.80;;
79792;SDS011;69279;49.072;17.462;2023-06-14T03:37:17;3.35;;;1.67;;
79792;SDS011;69279;49.072;17.462;2023-06-14T03:42:12;2.55;;;1.48;;
79792;SDS011;69279;49.072;17.462;2023-06-14T03:44:38;3.58;;;1.58;;
79792;SDS011;69279;49.072;17.462;2023-06-14T03:49:28;1.77;;;1.38;;
79792;SDS011;69279;49.072;17.462;2023-06-14T03:51:54;3.22;;;1.58;;
79792;SDS011;69279;49.072;17.462;2023-06-14T03:54:20;3.67;;;1.55;;
79792;SDS011;69279;49.072;17.462;2023-06-14T03:56:47;3.33;;;2.03;;
79792;SDS011;69279;49.072;17.462;2023-06-14T03:59:12;3.90;;;2.00;;
79792;SDS011;69279;49.072;17.462;2023-06-14T04:04:10;2.53;;;1.58;;
79792;SDS011;69279;49.072;17.462;2023-06-14T04:06:36;2.50;;;1.38;;
79792;SDS011;69279;49.072;17.462;2023-06-14T04:11:27;3.20;;;1.35;;
79792;SDS011;69279;49.072;17.462;2023-06-14T04:16:18;2.95;;;1.65;;
79792;SDS011;69279;49.072;17.462;2023-06-14T04:21:11;2.28;;;1.17;;
79792;SDS011;69279;49.072;17.462;2023-06-14T04:23:37;3.95;;;1.90;;
79792;SDS011;69279;49.072;17.462;2023-06-14T04:26:03;6.30;;;2.15;;
79792;SDS011;69279;49.072;17.462;2023-06-14T04:28:28;2.75;;;1.90;;
79792;SDS011;69279;49.072;17.462;2023-06-14T04:30:53;3.20;;;1.90;;
79792;SDS011;69279;49.072;17.462;2023-06-14T04:33:19;5.63;;;2.17;;
79792;SDS011;69279;49.072;17.462;2023-06-14T04:35:44;2.85;;;1.52;;
79792;SDS011;69279;49.072;17.462;2023-06-14T04:38:13;3.92;;;1.95;;
79792;SDS011;69279;49.072;17.462;2023-06-14T04:40:38;3.72;;;2.15;;
79792;SDS011;69279;49.072;17.462;2023-06-14T04:43:08;4.25;;;1.80;;
79792;SDS011;69279;49.072;17.462;2023-06-14T04:45:35;4.15;;;1.70;;
79792;SDS011;69279;49.072;17.462;2023-06-14T04:48:02;2.80;;;1.88;;
79792;SDS011;69279;49.072;17.462;2023-06-14T04:50:27;4.90;;;2.40;;
79792;SDS011;69279;49.072;17.462;2023-06-14T04:52:54;4.30;;;2.30;;
79792;SDS011;69279;49.072;17.462;2023-06-14T04:55:20;2.20;;;1.35;;
79792;SDS011;69279;49.072;17.462;2023-06-14T04:57:46;4.13;;;2.38;;
79792;SDS011;69279;49.072;17.462;2023-06-14T05:00:12;3.72;;;2.13;;
79792;SDS011;69279;49.072;17.462;2023-06-14T05:02:38;3.25;;;2.25;;
79792;SDS011;69279;49.072;17.462;2023-06-14T05:05:05;5.32;;;2.45;;
79792;SDS011;69279;49.072;17.462;2023-06-14T05:07:31;4.15;;;2.33;;
79792;SDS011;69279;49.072;17.462;2023-06-14T05:09:58;4.70;;;2.55;;
79792;SDS011;69279;49.072;17.462;2023-06-14T05:12:24;3.53;;;2.53;;
79792;SDS011;69279;49.072;17.462;2023-06-14T05:14:49;3.42;;;2.10;;
79792;SDS011;69279;49.072;17.462;2023-06-14T05:17:15;6.63;;;2.20;;
79792;SDS011;69279;49.072;17.462;2023-06-14T05:19:42;4.18;;;2.20;;
79792;SDS011;69279;49.072;17.462;2023-06-14T05:22:07;6.18;;;2.53;;
79792;SDS011;69279;49.072;17.462;2023-06-14T05:24:33;3.70;;;1.85;;
79792;SDS011;69279;49.072;17.462;2023-06-14T05:26:59;2.72;;;1.88;;
79792;SDS011;69279;49.072;17.462;2023-06-14T05:29:24;4.53;;;2.45;;
79792;SDS011;69279;49.072;17.462;2023-06-14T05:31:51;4.05;;;2.10;;
79792;SDS011;69279;49.072;17.462;2023-06-14T05:34:16;3.78;;;2.55;;
79792;SDS011;69279;49.072;17.462;2023-06-14T05:36:43;3.85;;;2.30;;
79792;SDS011;69279;49.072;17.462;2023-06-14T05:39:09;6.03;;;2.47;;
79792;SDS011;69279;49.072;17.462;2023-06-14T05:41:35;5.25;;;2.72;;
79792;SDS011;69279;49.072;17.462;2023-06-14T05:44:01;4.72;;;3.63;;
79792;SDS011;69279;49.072;17.462;2023-06-14T05:46:28;4.68;;;2.30;;
79792;SDS011;69279;49.072;17.462;2023-06-14T05:48:54;4.82;;;2.47;;
79792;SDS011;69279;49.072;17.462;2023-06-14T05:51:22;6.32;;;2.88;;
79792;SDS011;69279;49.072;17.462;2023-06-14T05:53:55;6.20;;;2.53;;
79792;SDS011;69279;49.072;17.462;2023-06-14T05:56:21;5.30;;;2.78;;
79792;SDS011;69279;49.072;17.462;2023-06-14T05:58:47;6.55;;;3.15;;
79792;SDS011;69279;49.072;17.462;2023-06-14T06:01:13;4.78;;;2.05;;
79792;SDS011;69279;49.072;17.462;2023-06-14T06:03:38;5.00;;;2.63;;
79792;SDS011;69279;49.072;17.462;2023-06-14T06:06:12;4.18;;;2.05;;
79792;SDS011;69279;49.072;17.462;2023-06-14T06:08:40;3.78;;;2.63;;
79792;SDS011;69279;49.072;17.462;2023-06-14T06:11:06;5.25;;;2.88;;
79792;SDS011;69279;49.072;17.462;2023-06-14T06:13:31;4.38;;;2.63;;
79792;SDS011;69279;49.072;17.462;2023-06-14T06:16:01;6.65;;;2.63;;
79792;SDS011;69279;49.072;17.462;2023-06-14T06:18:27;4.38;;;2.53;;
79792;SDS011;69279;49.072;17.462;2023-06-14T06:20:53;5.75;;;3.47;;
79792;SDS011;69279;49.072;17.462;2023-06-14T06:23:18;5.93;;;2.97;;
79792;SDS011;69279;49.072;17.462;2023-06-14T06:25:43;5.93;;;2.95;;
79792;SDS011;69279;49.072;17.462;2023-06-14T06:28:09;6.60;;;3.75;;
79792;SDS011;69279;49.072;17.462;2023-06-14T06:30:38;6.35;;;3.78;;
79792;SDS011;69279;49.072;17.462;2023-06-14T06:33:11;6.15;;;3.45;;
79792;SDS011;69279;49.072;17.462;2023-06-14T06:35:37;8.05;;;3.95;;
79792;SDS011;69279;49.072;17.462;2023-06-14T06:38:02;5.25;;;3.28;;
79792;SDS011;69279;49.072;17.462;2023-06-14T06:40:36;5.50;;;3.25;;
79792;SDS011;69279;49.072;17.462;2023-06-14T06:43:16;9.23;;;4.32;;
79792;SDS011;69279;49.072;17.462;2023-06-14T06:45:42;8.13;;;4.18;;
79792;SDS011;69279;49.072;17.462;2023-06-14T06:48:13;7.60;;;3.53;;
79792;SDS011;69279;49.072;17.462;2023-06-14T06:50:41;9.02;;;4.40;;
79792;SDS011;69279;49.072;17.462;2023-06-14T06:53:06;9.07;;;5.03;;
79792;SDS011;69279;49.072;17.462;2023-06-14T06:55:32;6.53;;;3.65;;
79792;SDS011;69279;49.072;17.462;2023-06-14T06:57:58;7.63;;;3.88;;
79792;SDS011;69279;49.072;17.462;2023-06-14T07:00:24;8.65;;;4.38;;
79792;SDS011;69279;49.072;17.462;2023-06-14T07:02:50;7.00;;;3.63;;
79792;SDS011;69279;49.072;17.462;2023-06-14T07:05:16;5.65;;;3.40;;
79792;SDS011;69279;49.072;17.462;2023-06-14T07:07:41;6.30;;;3.33;;
79792;SDS011;69279;49.072;17.462;2023-06-14T07:10:07;6.38;;;2.88;;
79792;SDS011;69279;49.072;17.462;2023-06-14T07:12:32;6.00;;;3.53;;
79792;SDS011;69279;49.072;17.462;2023-06-14T07:15:01;6.72;;;3.35;;
79792;SDS011;69279;49.072;17.462;2023-06-14T07:17:26;8.32;;;4.10;;
79792;SDS011;69279;49.072;17.462;2023-06-14T07:19:52;7.38;;;3.67;;
79792;SDS011;69279;49.072;17.462;2023-06-14T07:22:18;7.07;;;3.75;;
79792;SDS011;69279;49.072;17.462;2023-06-14T07:24:46;4.72;;;3.17;;
79792;SDS011;69279;49.072;17.462;2023-06-14T07:27:12;7.10;;;3.33;;
79792;SDS011;69279;49.072;17.462;2023-06-14T07:29:38;6.10;;;3.38;;
79792;SDS011;69279;49.072;17.462;2023-06-14T07:35:45;7.50;;;3.40;;
79792;SDS011;69279;49.072;17.462;2023-06-14T07:38:14;5.30;;;3.45;;
79792;SDS011;69279;49.072;17.462;2023-06-14T07:40:41;5.63;;;3.38;;
79792;SDS011;69279;49.072;17.462;2023-06-14T07:43:07;6.38;;;3.38;;
79792;SDS011;69279;49.072;17.462;2023-06-14T07:45:33;6.95;;;3.53;;
79792;SDS011;69279;49.072;17.462;2023-06-14T07:50:32;6.32;;;3.67;;
79792;SDS011;69279;49.072;17.462;2023-06-14T07:52:57;8.05;;;3.38;;
79792;SDS011;69279;49.072;17.462;2023-06-14T07:55:23;5.70;;;3.20;;
79792;SDS011;69279;49.072;17.462;2023-06-14T07:57:50;7.20;;;3.95;;
79792;SDS011;69279;49.072;17.462;2023-06-14T08:00:16;6.53;;;3.38;;
79792;SDS011;69279;49.072;17.462;2023-06-14T08:02:43;4.80;;;2.78;;
79792;SDS011;69279;49.072;17.462;2023-06-14T08:05:12;6.15;;;3.35;;
79792;SDS011;69279;49.072;17.462;2023-06-14T08:07:38;5.00;;;2.97;;
79792;SDS011;69279;49.072;17.462;2023-06-14T08:10:13;6.93;;;3.58;;
79792;SDS011;69279;49.072;17.462;2023-06-14T08:12:39;6.85;;;3.55;;
79792;SDS011;69279;49.072;17.462;2023-06-14T08:15:08;8.02;;;3.75;;
79792;SDS011;69279;49.072;17.462;2023-06-14T08:17:34;5.70;;;3.35;;
79792;SDS011;69279;49.072;17.462;2023-06-14T08:19:59;8.27;;;3.67;;
79792;SDS011;69279;49.072;17.462;2023-06-14T08:22:24;5.28;;;3.00;;
79792;SDS011;69279;49.072;17.462;2023-06-14T08:24:50;5.13;;;3.33;;
79792;SDS011;69279;49.072;17.462;2023-06-14T08:27:18;4.65;;;3.03;;
79792;SDS011;69279;49.072;17.462;2023-06-14T08:29:44;6.22;;;3.60;;
79792;SDS011;69279;49.072;17.462;2023-06-14T08:32:28;5.10;;;2.85;;
79792;SDS011;69279;49.072;17.462;2023-06-14T08:34:56;4.93;;;2.65;;
79792;SDS011;69279;49.072;17.462;2023-06-14T08:37:23;5.05;;;3.47;;
79792;SDS011;69279;49.072;17.462;2023-06-14T08:39:52;5.03;;;2.92;;
79792;SDS011;69279;49.072;17.462;2023-06-14T08:42:17;6.22;;;2.85;;
79792;SDS011;69279;49.072;17.462;2023-06-14T08:44:44;4.53;;;2.70;;
79792;SDS011;69279;49.072;17.462;2023-06-14T08:47:11;5.15;;;2.90;;
79792;SDS011;69279;49.072;17.462;2023-06-14T08:49:37;3.97;;;2.42;;
79792;SDS011;69279;49.072;17.462;2023-06-14T08:52:04;4.88;;;2.65;;
79792;SDS011;69279;49.072;17.462;2023-06-14T08:57:27;4.75;;;2.17;;
79792;SDS011;69279;49.072;17.462;2023-06-14T08:59:55;4.40;;;2.42;;
79792;SDS011;69279;49.072;17.462;2023-06-14T09:02:30;3.67;;;2.47;;
79792;SDS011;69279;49.072;17.462;2023-06-14T09:04:55;3.92;;;2.28;;
79792;SDS011;69279;49.072;17.462;2023-06-14T09:07:24;5.05;;;2.53;;
79792;SDS011;69279;49.072;17.462;2023-06-14T09:10:04;3.40;;;2.13;;
79792;SDS011;69279;49.072;17.462;2023-06-14T09:12:37;4.60;;;2.60;;
79792;SDS011;69279;49.072;17.462;2023-06-14T09:15:04;4.35;;;2.75;;
79792;SDS011;69279;49.072;17.462;2023-06-14T09:17:35;4.30;;;2.33;;
79792;SDS011;69279;49.072;17.462;2023-06-14T09:20:02;4.60;;;2.70;;
79792;SDS011;69279;49.072;17.462;2023-06-14T09:22:31;4.75;;;2.58;;
79792;SDS011;69279;49.072;17.462;2023-06-14T09:24:57;3.83;;;2.40;;
79792;SDS011;69279;49.072;17.462;2023-06-14T09:27:23;5.72;;;2.67;;
79792;SDS011;69279;49.072;17.462;2023-06-14T09:29:53;5.00;;;3.20;;
79792;SDS011;69279;49.072;17.462;2023-06-14T09:32:22;4.57;;;2.70;;
79792;SDS011;69279;49.072;17.462;2023-06-14T09:34:49;3.75;;;2.15;;
79792;SDS011;69279;49.072;17.462;2023-06-14T09:37:28;5.03;;;2.38;;
79792;SDS011;69279;49.072;17.462;2023-06-14T09:39:56;3.63;;;2.45;;
79792;SDS011;69279;49.072;17.462;2023-06-14T09:42:22;4.63;;;2.50;;
79792;SDS011;69279;49.072;17.462;2023-06-14T09:44:54;5.25;;;3.20;;
79792;SDS011;69279;49.072;17.462;2023-06-14T09:47:21;4.13;;;2.60;;
79792;SDS011;69279;49.072;17.462;2023-06-14T09:49:51;4.88;;;2.72;;
79792;SDS011;69279;49.072;17.462;2023-06-14T09:52:22;3.60;;;2.42;;
79792;SDS011;69279;49.072;17.462;2023-06-14T09:54:49;4.50;;;2.17;;
79792;SDS011;69279;49.072;17.462;2023-06-14T09:57:20;3.63;;;2.20;;
79792;SDS011;69279;49.072;17.462;2023-06-14T09:59:48;4.25;;;2.10;;
79792;SDS011;69279;49.072;17.462;2023-06-14T10:02:27;3.17;;;1.90;;
79792;SDS011;69279;49.072;17.462;2023-06-14T10:05:06;2.47;;;1.63;;
79792;SDS011;69279;49.072;17.462;2023-06-14T10:10:34;3.63;;;2.20;;
79792;SDS011;69279;49.072;17.462;2023-06-14T10:13:00;3.03;;;2.25;;
79792;SDS011;69279;49.072;17.462;2023-06-14T10:15:32;2.20;;;1.70;;
79792;SDS011;69279;49.072;17.462;2023-06-14T10:20:58;3.40;;;2.08;;
79792;SDS011;69279;49.072;17.462;2023-06-14T10:23:35;3.75;;;2.22;;
79792;SDS011;69279;49.072;17.462;2023-06-14T10:26:03;4.68;;;2.50;;
79792;SDS011;69279;49.072;17.462;2023-06-14T10:34:23;3.88;;;1.98;;
79792;SDS011;69279;49.072;17.462;2023-06-14T10:37:06;3.13;;;1.70;;
79792;SDS011;69279;49.072;17.462;2023-06-14T10:39:44;2.53;;;1.63;;
79792;SDS011;69279;49.072;17.462;2023-06-14T10:42:13;2.45;;;1.70;;
79792;SDS011;69279;49.072;17.462;2023-06-14T10:44:45;2.58;;;1.70;;
79792;SDS011;69279;49.072;17.462;2023-06-14T10:52:33;1.80;;;1.38;;
79792;SDS011;69279;49.072;17.462;2023-06-14T10:55:16;3.50;;;2.70;;
79792;SDS011;69279;49.072;17.462;2023-06-14T10:57:47;3.13;;;2.25;;
79792;SDS011;69279;49.072;17.462;2023-06-14T11:00:17;3.38;;;2.28;;
79792;SDS011;69279;49.072;17.462;2023-06-14T11:06:20;3.47;;;2.20;;
79792;SDS011;69279;49.072;17.462;2023-06-14T11:12:00;3.13;;;2.33;;
79792;SDS011;69279;49.072;17.462;2023-06-14T11:14:30;4.90;;;2.78;;
79792;SDS011;69279;49.072;17.462;2023-06-14T11:16:56;3.70;;;2.53;;
79792;SDS011;69279;49.072;17.462;2023-06-14T11:19:22;4.95;;;2.58;;
79792;SDS011;69279;49.072;17.462;2023-06-14T11:21:48;4.45;;;2.55;;
79792;SDS011;69279;49.072;17.462;2023-06-14T11:24:13;4.78;;;2.75;;
79792;SDS011;69279;49.072;17.462;2023-06-14T11:26:41;3.60;;;2.42;;
79792;SDS011;69279;49.072;17.462;2023-06-14T11:29:07;6.13;;;3.00;;
79792;SDS011;69279;49.072;17.462;2023-06-14T11:31:33;3.05;;;2.30;;
79792;SDS011;69279;49.072;17.462;2023-06-14T11:34:01;4.20;;;2.35;;
79792;SDS011;69279;49.072;17.462;2023-06-14T11:36:27;3.63;;;2.17;;
79792;SDS011;69279;49.072;17.462;2023-06-14T11:38:59;3.92;;;2.58;;
79792;SDS011;69279;49.072;17.462;2023-06-14T11:41:25;4.30;;;2.15;;
79792;SDS011;69279;49.072;17.462;2023-06-14T11:43:53;4.68;;;2.78;;
79792;SDS011;69279;49.072;17.462;2023-06-14T11:46:21;3.45;;;2.42;;
79792;SDS011;69279;49.072;17.462;2023-06-14T11:48:49;4.10;;;2.50;;
79792;SDS011;69279;49.072;17.462;2023-06-14T11:51:18;4.45;;;2.38;;
79792;SDS011;69279;49.072;17.462;2023-06-14T11:53:44;3.67;;;2.28;;
79792;SDS011;69279;49.072;17.462;2023-06-14T11:56:09;3.75;;;2.28;;
79792;SDS011;69279;49.072;17.462;2023-06-14T11:58:45;4.93;;;2.40;;
79792;SDS011;69279;49.072;17.462;2023-06-14T12:01:18;3.38;;;2.30;;
79792;SDS011;69279;49.072;17.462;2023-06-14T12:03:48;2.92;;;2.17;;
79792;SDS011;69279;49.072;17.462;2023-06-14T12:06:27;3.10;;;2.30;;
79792;SDS011;69279;49.072;17.462;2023-06-14T12:08:56;3.88;;;2.40;;
79792;SDS011;69279;49.072;17.462;2023-06-14T12:11:22;3.25;;;2.10;;
79792;SDS011;69279;49.072;17.462;2023-06-14T12:13:47;4.80;;;2.40;;
79792;SDS011;69279;49.072;17.462;2023-06-14T12:16:14;2.92;;;1.95;;
79792;SDS011;69279;49.072;17.462;2023-06-14T12:18:40;4.15;;;2.50;;
79792;SDS011;69279;49.072;17.462;2023-06-14T12:21:06;2.78;;;1.90;;
79792;SDS011;69279;49.072;17.462;2023-06-14T12:23:47;2.90;;;2.08;;
79792;SDS011;69279;49.072;17.462;2023-06-14T12:26:17;3.97;;;1.98;;
79792;SDS011;69279;49.072;17.462;2023-06-14T12:28:44;2.85;;;1.92;;
79792;SDS011;69279;49.072;17.462;2023-06-14T12:31:11;2.72;;;1.83;;
79792;SDS011;69279;49.072;17.462;2023-06-14T12:33:39;3.53;;;2.35;;
79792;SDS011;69279;49.072;17.462;2023-06-14T12:36:06;3.35;;;1.95;;
79792;SDS011;69279;49.072;17.462;2023-06-14T12:38:33;3.03;;;1.75;;
79792;SDS011;69279;49.072;17.462;2023-06-14T12:40:58;4.82;;;2.28;;
79792;SDS011;69279;49.072;17.462;2023-06-14T12:43:24;3.13;;;2.28;;
79792;SDS011;69279;49.072;17.462;2023-06-14T12:45:49;3.42;;;1.98;;
79792;SDS011;69279;49.072;17.462;2023-06-14T12:48:15;2.83;;;1.98;;
79792;SDS011;69279;49.072;17.462;2023-06-14T12:50:41;3.35;;;2.10;;
79792;SDS011;69279;49.072;17.462;2023-06-14T12:53:06;3.90;;;2.17;;
79792;SDS011;69279;49.072;17.462;2023-06-14T12:55:32;3.47;;;2.13;;
79792;SDS011;69279;49.072;17.462;2023-06-14T12:57:58;4.22;;;2.50;;
79792;SDS011;69279;49.072;17.462;2023-06-14T13:00:24;3.90;;;2.25;;
79792;SDS011;69279;49.072;17.462;2023-06-14T13:02:52;3.38;;;2.13;;
79792;SDS011;69279;49.072;17.462;2023-06-14T13:05:19;3.72;;;2.10;;
79792;SDS011;69279;49.072;17.462;2023-06-14T13:07:44;3.00;;;2.13;;
79792;SDS011;69279;49.072;17.462;2023-06-14T13:10:10;4.13;;;2.00;;
79792;SDS011;69279;49.072;17.462;2023-06-14T13:12:37;3.10;;;2.17;;
79792;SDS011;69279;49.072;17.462;2023-06-14T13:15:02;2.85;;;2.00;;
79792;SDS011;69279;49.072;17.462;2023-06-14T13:17:28;3.97;;;2.17;;
79792;SDS011;69279;49.072;17.462;2023-06-14T13:19:53;2.97;;;1.60;;
79792;SDS011;69279;49.072;17.462;2023-06-14T13:22:19;2.88;;;2.13;;
79792;SDS011;69279;49.072;17.462;2023-06-14T13:24:45;3.08;;;2.03;;
79792;SDS011;69279;49.072;17.462;2023-06-14T13:27:11;3.38;;;2.13;;
79792;SDS011;69279;49.072;17.462;2023-06-14T13:29:40;3.85;;;2.20;;
79792;SDS011;69279;49.072;17.462;2023-06-14T13:32:06;5.47;;;2.88;;
79792;SDS011;69279;49.072;17.462;2023-06-14T13:34:32;3.03;;;2.22;;
79792;SDS011;69279;49.072;17.462;2023-06-14T13:36:59;4.15;;;2.30;;
79792;SDS011;69279;49.072;17.462;2023-06-14T13:39:25;5.50;;;2.40;;
79792;SDS011;69279;49.072;17.462;2023-06-14T13:41:52;3.53;;;1.92;;
79792;SDS011;69279;49.072;17.462;2023-06-14T13:44:18;3.85;;;2.30;;
79792;SDS011;69279;49.072;17.462;2023-06-14T13:46:47;4.85;;;2.45;;
79792;SDS011;69279;49.072;17.462;2023-06-14T13:49:12;3.08;;;2.05;;
79792;SDS011;69279;49.072;17.462;2023-06-14T13:51:38;3.63;;;2.08;;
79792;SDS011;69279;49.072;17.462;2023-06-14T13:54:04;4.53;;;2.00;;
79792;SDS011;69279;49.072;17.462;2023-06-14T13:56:29;3.70;;;2.10;;
79792;SDS011;69279;49.072;17.462;2023-06-14T13:58:55;3.25;;;2.00;;
79792;SDS011;69279;49.072;17.462;2023-06-14T14:01:21;3.72;;;2.03;;
79792;SDS011;69279;49.072;17.462;2023-06-14T14:03:47;2.97;;;2.17;;
79792;SDS011;69279;49.072;17.462;2023-06-14T14:06:15;4.40;;;2.15;;
79792;SDS011;69279;49.072;17.462;2023-06-14T14:08:41;3.92;;;2.42;;
79792;SDS011;69279;49.072;17.462;2023-06-14T14:11:08;3.33;;;2.08;;
79792;SDS011;69279;49.072;17.462;2023-06-14T14:13:34;3.35;;;2.15;;
79792;SDS011;69279;49.072;17.462;2023-06-14T14:16:01;3.95;;;1.98;;
79792;SDS011;69279;49.072;17.462;2023-06-14T14:18:28;3.60;;;2.22;;
79792;SDS011;69279;49.072;17.462;2023-06-14T14:20:54;3.72;;;2.00;;
79792;SDS011;69279;49.072;17.462;2023-06-14T14:23:21;3.50;;;2.22;;
79792;SDS011;69279;49.072;17.462;2023-06-14T14:25:47;3.28;;;1.88;;
79792;SDS011;69279;49.072;17.462;2023-06-14T14:28:13;2.80;;;2.03;;
79792;SDS011;69279;49.072;17.462;2023-06-14T14:30:41;4.10;;;2.30;;
79792;SDS011;69279;49.072;17.462;2023-06-14T14:33:07;4.03;;;2.10;;
79792;SDS011;69279;49.072;17.462;2023-06-14T14:35:33;3.10;;;1.90;;
79792;SDS011;69279;49.072;17.462;2023-06-14T14:37:58;4.22;;;2.17;;
79792;SDS011;69279;49.072;17.462;2023-06-14T14:40:33;4.38;;;2.47;;
79792;SDS011;69279;49.072;17.462;2023-06-14T14:42:58;3.45;;;2.25;;
79792;SDS011;69279;49.072;17.462;2023-06-14T14:45:23;3.58;;;1.70;;
79792;SDS011;69279;49.072;17.462;2023-06-14T14:47:50;3.40;;;2.33;;
79792;SDS011;69279;49.072;17.462;2023-06-14T14:50:15;3.33;;;2.10;;
79792;SDS011;69279;49.072;17.462;2023-06-14T14:52:41;4.20;;;2.28;;
79792;SDS011;69279;49.072;17.462;2023-06-14T14:55:07;2.85;;;1.88;;
79792;SDS011;69279;49.072;17.462;2023-06-14T14:57:33;3.92;;;2.20;;
79792;SDS011;69279;49.072;17.462;2023-06-14T14:59:58;4.90;;;2.30;;
79792;SDS011;69279;49.072;17.462;2023-06-14T15:02:24;2.80;;;1.95;;
79792;SDS011;69279;49.072;17.462;2023-06-14T15:04:49;4.50;;;2.30;;
79792;SDS011;69279;49.072;17.462;2023-06-14T15:07:15;3.65;;;1.80;;
79792;SDS011;69279;49.072;17.462;2023-06-14T15:09:40;2.72;;;2.10;;
79792;SDS011;69279;49.072;17.462;2023-06-14T15:12:06;4.63;;;1.92;;
79792;SDS011;69279;49.072;17.462;2023-06-14T15:14:32;3.25;;;2.00;;
79792;SDS011;69279;49.072;17.462;2023-06-14T15:16:57;4.72;;;2.45;;
79792;SDS011;69279;49.072;17.462;2023-06-14T15:19:23;4.35;;;2.22;;
79792;SDS011;69279;49.072;17.462;2023-06-14T15:21:49;3.50;;;2.33;;
79792;SDS011;69279;49.072;17.462;2023-06-14T15:24:14;3.60;;;2.03;;
79792;SDS011;69279;49.072;17.462;2023-06-14T15:26:39;3.55;;;2.20;;
79792;SDS011;69279;49.072;17.462;2023-06-14T15:29:05;4.53;;;2.30;;
79792;SDS011;69279;49.072;17.462;2023-06-14T15:31:30;3.92;;;2.03;;
79792;SDS011;69279;49.072;17.462;2023-06-14T15:33:55;3.65;;;2.53;;
79792;SDS011;69279;49.072;17.462;2023-06-14T15:36:21;4.53;;;2.28;;
79792;SDS011;69279;49.072;17.462;2023-06-14T15:38:46;3.10;;;2.30;;